sensor_id;sensor_type;location;lat;lon;timestamp;pressure;altitude;pressure_sealevel;temperature;humidity
36692;BME280;22678;52.052;4.242;2022-10-18T00:01:43;102599.03;;;14.20;96.34
36692;BME280;22678;52.052;4.242;2022-10-18T00:04:08;102594.56;;;14.11;96.23
36692;BME280;22678;52.052;4.242;2022-10-18T00:06:34;102611.34;;;14.15;95.80
36692;BME280;22678;52.052;4.242;2022-10-18T00:08:59;102590.09;;;13.96;95.88
36692;BME280;22678;52.052;4.242;2022-10-18T00:11:25;102579.50;;;13.95;95.77
36692;BME280;22678;52.052;4.242;2022-10-18T00:13:50;102617.47;;;14.06;95.79
36692;BME280;22678;52.052;4.242;2022-10-18T00:16:16;102604.25;;;14.05;95.60
36692;BME280;22678;52.052;4.242;2022-10-18T00:18:42;102595.38;;;13.99;95.48
36692;BME280;22678;52.052;4.242;2022-10-18T00:21:14;102595.34;;;13.92;95.54
36692;BME280;22678;52.052;4.242;2022-10-18T00:23:40;102605.00;;;13.90;95.39
36692;BME280;22678;52.052;4.242;2022-10-18T00:26:19;102605.06;;;13.93;95.49
36692;BME280;22678;52.052;4.242;2022-10-18T00:28:45;102591.75;;;13.82;95.29
36692;BME280;22678;52.052;4.242;2022-10-18T00:31:16;102576.69;;;13.69;95.32
36692;BME280;22678;52.052;4.242;2022-10-18T00:33:44;102614.69;;;13.84;95.20
36692;BME280;22678;52.052;4.242;2022-10-18T00:36:10;102605.88;;;13.81;95.13
36692;BME280;22678;52.052;4.242;2022-10-18T00:38:36;102575.72;;;13.57;94.93
36692;BME280;22678;52.052;4.242;2022-10-18T00:41:02;102613.75;;;13.76;94.99
36692;BME280;22678;52.052;4.242;2022-10-18T00:43:28;102606.59;;;13.63;94.71
36692;BME280;22678;52.052;4.242;2022-10-18T00:45:53;102607.50;;;13.60;94.73
36692;BME280;22678;52.052;4.242;2022-10-18T00:48:19;102618.97;;;13.64;94.58
36692;BME280;22678;52.052;4.242;2022-10-18T00:50:46;102610.09;;;13.59;94.83
36692;BME280;22678;52.052;4.242;2022-10-18T00:53:15;102617.19;;;13.63;94.64
36692;BME280;22678;52.052;4.242;2022-10-18T00:55:42;102598.56;;;13.47;94.63
36692;BME280;22678;52.052;4.242;2022-10-18T00:58:08;102614.50;;;13.55;94.52
36692;BME280;22678;52.052;4.242;2022-10-18T01:00:35;102599.44;;;13.46;94.35
36692;BME280;22678;52.052;4.242;2022-10-18T01:03:04;102592.31;;;13.39;94.31
36692;BME280;22678;52.052;4.242;2022-10-18T01:05:29;102610.00;;;13.43;94.33
36692;BME280;22678;52.052;4.242;2022-10-18T01:13:59;102632.88;;;13.41;93.95
36692;BME280;22678;52.052;4.242;2022-10-18T01:16:35;102621.28;;;13.28;93.93
36692;BME280;22678;52.052;4.242;2022-10-18T01:19:18;102631.06;;;13.34;93.97
36692;BME280;22678;52.052;4.242;2022-10-18T01:21:55;102604.44;;;13.15;93.97
36692;BME280;22678;52.052;4.242;2022-10-18T01:24:43;102629.22;;;13.30;94.06
36692;BME280;22678;52.052;4.242;2022-10-18T01:32:40;102579.59;;;12.98;94.17
36692;BME280;22678;52.052;4.242;2022-10-18T01:35:13;102607.00;;;13.08;93.92
36692;BME280;22678;52.052;4.242;2022-10-18T01:37:41;102614.97;;;13.14;94.00
36692;BME280;22678;52.052;4.242;2022-10-18T01:40:11;102598.94;;;12.95;93.88
36692;BME280;22678;52.052;4.242;2022-10-18T01:42:38;102606.00;;;12.98;93.80
36692;BME280;22678;52.052;4.242;2022-10-18T01:45:05;102623.72;;;13.07;93.80
36692;BME280;22678;52.052;4.242;2022-10-18T01:47:33;102634.31;;;13.10;93.87
36692;BME280;22678;52.052;4.242;2022-10-18T01:50:00;102596.25;;;12.89;93.63
36692;BME280;22678;52.052;4.242;2022-10-18T01:52:26;102623.66;;;13.02;93.87
36692;BME280;22678;52.052;4.242;2022-10-18T01:54:53;102628.91;;;12.99;93.82
36692;BME280;22678;52.052;4.242;2022-10-18T02:00:18;102622.59;;;12.85;93.35
36692;BME280;22678;52.052;4.242;2022-10-18T02:02:53;102637.63;;;12.89;93.50
36692;BME280;22678;52.052;4.242;2022-10-18T02:08:45;102639.31;;;12.84;93.36
36692;BME280;22678;52.052;4.242;2022-10-18T02:11:14;102631.31;;;12.77;93.31
36692;BME280;22678;52.052;4.242;2022-10-18T02:13:51;102647.22;;;12.84;93.19
36692;BME280;22678;52.052;4.242;2022-10-18T02:16:27;102642.72;;;12.73;93.02
36692;BME280;22678;52.052;4.242;2022-10-18T02:19:02;102646.22;;;12.71;93.18
36692;BME280;22678;52.052;4.242;2022-10-18T02:21:30;102656.81;;;12.75;92.76
36692;BME280;22678;52.052;4.242;2022-10-18T02:23:57;102661.19;;;12.73;93.01
36692;BME280;22678;52.052;4.242;2022-10-18T02:26:24;102662.06;;;12.71;93.03
36692;BME280;22678;52.052;4.242;2022-10-18T02:28:50;102663.78;;;12.70;92.89
36692;BME280;22678;52.052;4.242;2022-10-18T02:31:30;102653.19;;;12.67;92.98
36692;BME280;22678;52.052;4.242;2022-10-18T02:34:40;102638.06;;;12.52;92.67
36692;BME280;22678;52.052;4.242;2022-10-18T02:36:59;102647.84;;;12.61;92.68
36692;BME280;22678;52.052;4.242;2022-10-18T02:39:42;102635.41;;;12.51;92.74
36692;BME280;22678;52.052;4.242;2022-10-18T02:42:10;102651.28;;;12.54;92.82
36692;BME280;22678;52.052;4.242;2022-10-18T02:44:36;102650.34;;;12.47;92.85
36692;BME280;22678;52.052;4.242;2022-10-18T02:47:04;102645.91;;;12.44;92.60
36692;BME280;22678;52.052;4.242;2022-10-18T02:49:29;102637.97;;;12.43;92.67
36692;BME280;22678;52.052;4.242;2022-10-18T02:51:54;102631.69;;;12.36;92.49
36692;BME280;22678;52.052;4.242;2022-10-18T02:54:20;102618.41;;;12.27;92.56
36692;BME280;22678;52.052;4.242;2022-10-18T02:56:45;102640.53;;;12.37;92.29
36692;BME280;22678;52.052;4.242;2022-10-18T02:59:11;102615.69;;;12.21;92.51
36692;BME280;22678;52.052;4.242;2022-10-18T03:01:36;102644.84;;;12.33;92.41
36692;BME280;22678;52.052;4.242;2022-10-18T03:04:03;102640.41;;;12.29;92.38
36692;BME280;22678;52.052;4.242;2022-10-18T03:06:28;102622.69;;;12.19;92.26
36692;BME280;22678;52.052;4.242;2022-10-18T03:08:53;102638.63;;;12.26;92.26
36692;BME280;22678;52.052;4.242;2022-10-18T03:11:19;102640.31;;;12.23;92.23
36692;BME280;22678;52.052;4.242;2022-10-18T03:13:44;102649.97;;;12.19;91.96
36692;BME280;22678;52.052;4.242;2022-10-18T03:16:11;102635.78;;;12.13;92.40
36692;BME280;22678;52.052;4.242;2022-10-18T03:18:36;102640.16;;;12.11;92.25
36692;BME280;22678;52.052;4.242;2022-10-18T03:21:06;102648.13;;;12.15;91.85
36692;BME280;22678;52.052;4.242;2022-10-18T03:23:31;102604.66;;;11.88;91.99
36692;BME280;22678;52.052;4.242;2022-10-18T03:25:57;102643.56;;;12.03;91.93
36692;BME280;22678;52.052;4.242;2022-10-18T03:28:22;102620.44;;;11.87;92.15
36692;BME280;22678;52.052;4.242;2022-10-18T03:30:47;102630.13;;;11.88;91.96
36692;BME280;22678;52.052;4.242;2022-10-18T03:33:12;102657.63;;;12.04;91.87
36692;BME280;22678;52.052;4.242;2022-10-18T03:35:38;102656.75;;;12.02;92.04
36692;BME280;22678;52.052;4.242;2022-10-18T03:38:03;102637.97;;;11.85;91.92
36692;BME280;22678;52.052;4.242;2022-10-18T03:40:29;102640.63;;;11.86;91.70
36692;BME280;22678;52.052;4.242;2022-10-18T03:42:54;102647.72;;;11.89;91.61
36692;BME280;22678;52.052;4.242;2022-10-18T03:45:20;102630.84;;;11.78;91.70
36692;BME280;22678;52.052;4.242;2022-10-18T03:47:45;102651.13;;;11.83;91.44
36692;BME280;22678;52.052;4.242;2022-10-18T03:50:10;102597.84;;;11.46;91.51
36692;BME280;22678;52.052;4.242;2022-10-18T03:52:36;102661.69;;;11.85;91.58
36692;BME280;22678;52.052;4.242;2022-10-18T03:55:01;102637.75;;;11.69;91.56
36692;BME280;22678;52.052;4.242;2022-10-18T03:57:26;102658.13;;;11.80;91.75
36692;BME280;22678;52.052;4.242;2022-10-18T03:59:51;102613.81;;;11.57;91.48
36692;BME280;22678;52.052;4.242;2022-10-18T04:02:17;102628.91;;;11.67;91.44
36692;BME280;22678;52.052;4.242;2022-10-18T04:04:42;102616.47;;;11.57;91.39
36692;BME280;22678;52.052;4.242;2022-10-18T04:07:07;102644.63;;;11.61;91.40
36692;BME280;22678;52.052;4.242;2022-10-18T04:09:33;102637.53;;;11.57;91.38
36692;BME280;22678;52.052;4.242;2022-10-18T04:11:58;102626.78;;;11.43;91.33
36692;BME280;22678;52.052;4.242;2022-10-18T04:14:23;102649.00;;;11.59;91.61
36692;BME280;22678;52.052;4.242;2022-10-18T04:16:49;102634.84;;;11.54;91.52
36692;BME280;22678;52.052;4.242;2022-10-18T04:19:14;102643.75;;;11.59;91.54
36692;BME280;22678;52.052;4.242;2022-10-18T04:21:40;102631.28;;;11.50;91.64
36692;BME280;22678;52.052;4.242;2022-10-18T04:24:05;102639.13;;;11.46;91.59
36692;BME280;22678;52.052;4.242;2022-10-18T04:26:30;102641.75;;;11.46;91.56
36692;BME280;22678;52.052;4.242;2022-10-18T04:28:56;102659.34;;;11.48;91.54
36692;BME280;22678;52.052;4.242;2022-10-18T04:31:21;102644.22;;;11.36;91.24
36692;BME280;22678;52.052;4.242;2022-10-18T04:33:46;102670.75;;;11.46;91.46
36692;BME280;22678;52.052;4.242;2022-10-18T04:36:12;102660.97;;;11.40;91.47
36692;BME280;22678;52.052;4.242;2022-10-18T04:38:37;102675.91;;;11.39;91.52
36692;BME280;22678;52.052;4.242;2022-10-18T04:41:02;102675.94;;;11.41;91.51
36692;BME280;22678;52.052;4.242;2022-10-18T04:43:28;102652.81;;;11.26;91.47
36692;BME280;22678;52.052;4.242;2022-10-18T04:45:53;102671.38;;;11.32;91.38
36692;BME280;22678;52.052;4.242;2022-10-18T04:48:18;102651.81;;;11.18;91.41
36692;BME280;22678;52.052;4.242;2022-10-18T04:50:46;102683.69;;;11.33;91.65
36692;BME280;22678;52.052;4.242;2022-10-18T04:53:12;102672.09;;;11.22;91.36
36692;BME280;22678;52.052;4.242;2022-10-18T04:55:37;102582.47;;;10.70;91.19
36692;BME280;22678;52.052;4.242;2022-10-18T04:58:02;102657.88;;;11.14;91.21
36692;BME280;22678;52.052;4.242;2022-10-18T05:00:28;102683.50;;;11.22;91.21
36692;BME280;22678;52.052;4.242;2022-10-18T05:02:57;102697.47;;;11.20;91.30
36692;BME280;22678;52.052;4.242;2022-10-18T05:05:22;102696.56;;;11.18;91.20
36692;BME280;22678;52.052;4.242;2022-10-18T05:07:48;102669.13;;;11.05;91.23
36692;BME280;22678;52.052;4.242;2022-10-18T05:10:13;102693.00;;;11.16;91.27
36692;BME280;22678;52.052;4.242;2022-10-18T05:12:38;102698.22;;;11.13;91.19
36692;BME280;22678;52.052;4.242;2022-10-18T05:15:04;102697.28;;;11.09;91.62
36692;BME280;22678;52.052;4.242;2022-10-18T05:17:30;102690.06;;;10.99;91.16
36692;BME280;22678;52.052;4.242;2022-10-18T05:19:55;102694.50;;;11.01;91.15
36692;BME280;22678;52.052;4.242;2022-10-18T05:22:21;102704.16;;;11.02;91.37
36692;BME280;22678;52.052;4.242;2022-10-18T05:24:46;102703.25;;;11.00;91.33
36692;BME280;22678;52.052;4.242;2022-10-18T05:27:11;102667.88;;;10.86;90.81
36692;BME280;22678;52.052;4.242;2022-10-18T05:29:37;102686.44;;;10.94;91.30
36692;BME280;22678;52.052;4.242;2022-10-18T05:32:02;102670.41;;;10.81;91.38
36692;BME280;22678;52.052;4.242;2022-10-18T05:34:28;102700.47;;;10.93;91.26
36692;BME280;22678;52.052;4.242;2022-10-18T05:36:56;102703.09;;;10.91;90.90
36692;BME280;22678;52.052;4.242;2022-10-18T05:39:22;102695.84;;;10.81;91.18
36692;BME280;22678;52.052;4.242;2022-10-18T05:41:47;102673.66;;;10.68;91.00
36692;BME280;22678;52.052;4.242;2022-10-18T05:44:13;102716.16;;;10.86;91.27
36692;BME280;22678;52.052;4.242;2022-10-18T05:46:38;102680.66;;;10.67;91.05
36692;BME280;22678;52.052;4.242;2022-10-18T05:49:03;102708.94;;;10.78;91.14
36692;BME280;22678;52.052;4.242;2022-10-18T05:51:28;102707.09;;;10.74;90.99
36692;BME280;22678;52.052;4.242;2022-10-18T05:53:54;102721.97;;;10.73;91.16
36692;BME280;22678;52.052;4.242;2022-10-18T05:56:19;102723.81;;;10.76;90.87
36692;BME280;22678;52.052;4.242;2022-10-18T05:58:49;102720.25;;;10.74;91.26
36692;BME280;22678;52.052;4.242;2022-10-18T06:01:14;102682.00;;;10.47;91.08
36692;BME280;22678;52.052;4.242;2022-10-18T06:03:39;102728.94;;;10.69;90.99
36692;BME280;22678;52.052;4.242;2022-10-18T06:06:07;102739.28;;;10.60;90.97
36692;BME280;22678;52.052;4.242;2022-10-18T06:08:33;102743.56;;;10.57;90.95
36692;BME280;22678;52.052;4.242;2022-10-18T06:11:05;102741.97;;;10.63;90.90
36692;BME280;22678;52.052;4.242;2022-10-18T06:13:30;102723.13;;;10.45;91.05
36692;BME280;22678;52.052;4.242;2022-10-18T06:15:56;102735.56;;;10.52;90.99
36692;BME280;22678;52.052;4.242;2022-10-18T06:18:21;102748.78;;;10.55;91.03
36692;BME280;22678;52.052;4.242;2022-10-18T06:20:47;102729.91;;;10.33;90.89
36692;BME280;22678;52.052;4.242;2022-10-18T06:23:12;102746.78;;;10.43;91.20
36692;BME280;22678;52.052;4.242;2022-10-18T06:25:37;102750.38;;;10.47;91.21
36692;BME280;22678;52.052;4.242;2022-10-18T06:28:03;102744.19;;;10.45;91.11
36692;BME280;22678;52.052;4.242;2022-10-18T06:30:29;102734.34;;;10.36;91.05
36692;BME280;22678;52.052;4.242;2022-10-18T06:32:58;102737.69;;;10.32;91.21
36692;BME280;22678;52.052;4.242;2022-10-18T06:35:24;102776.72;;;10.48;91.18
36692;BME280;22678;52.052;4.242;2022-10-18T06:37:49;102778.38;;;10.45;91.29
36692;BME280;22678;52.052;4.242;2022-10-18T06:40:14;102741.16;;;10.29;90.98
36692;BME280;22678;52.052;4.242;2022-10-18T06:42:39;102776.63;;;10.44;91.16
36692;BME280;22678;52.052;4.242;2022-10-18T06:45:05;102759.63;;;10.31;91.16
36692;BME280;22678;52.052;4.242;2022-10-18T06:47:31;102762.34;;;10.34;91.41
36692;BME280;22678;52.052;4.242;2022-10-18T06:49:56;102788.03;;;10.46;91.28
36692;BME280;22678;52.052;4.242;2022-10-18T06:52:21;102772.06;;;10.37;91.30
36692;BME280;22678;52.052;4.242;2022-10-18T06:54:50;102771.16;;;10.36;91.48
36692;BME280;22678;52.052;4.242;2022-10-18T06:57:15;102790.59;;;10.43;91.31
36692;BME280;22678;52.052;4.242;2022-10-18T06:59:40;102772.88;;;10.34;91.30
36692;BME280;22678;52.052;4.242;2022-10-18T07:02:06;102795.03;;;10.44;91.51
36692;BME280;22678;52.052;4.242;2022-10-18T07:04:31;102786.06;;;10.36;91.52
36692;BME280;22678;52.052;4.242;2022-10-18T07:06:56;102797.66;;;10.44;91.25
36692;BME280;22678;52.052;4.242;2022-10-18T07:09:22;102791.38;;;10.39;91.52
36692;BME280;22678;52.052;4.242;2022-10-18T07:11:47;102781.75;;;10.39;91.62
36692;BME280;22678;52.052;4.242;2022-10-18T07:14:13;102796.09;;;10.54;91.77
36692;BME280;22678;52.052;4.242;2022-10-18T07:16:38;102784.84;;;10.59;91.80
36692;BME280;22678;52.052;4.242;2022-10-18T07:19:04;102807.13;;;10.75;91.75
36692;BME280;22678;52.052;4.242;2022-10-18T07:21:29;102814.34;;;10.84;91.63
36692;BME280;22678;52.052;4.242;2022-10-18T07:23:56;102801.09;;;10.79;91.68
36692;BME280;22678;52.052;4.242;2022-10-18T07:26:26;102808.38;;;10.91;91.72
36692;BME280;22678;52.052;4.242;2022-10-18T07:28:59;102812.97;;;11.01;91.72
36692;BME280;22678;52.052;4.242;2022-10-18T07:31:26;102817.38;;;11.02;91.68
36692;BME280;22678;52.052;4.242;2022-10-18T07:33:52;102824.53;;;11.10;91.69
36692;BME280;22678;52.052;4.242;2022-10-18T07:36:18;102829.22;;;11.23;91.85
36692;BME280;22678;52.052;4.242;2022-10-18T07:38:45;102840.81;;;11.31;92.03
36692;BME280;22678;52.052;4.242;2022-10-18T07:41:11;102851.53;;;11.40;91.90
36692;BME280;22678;52.052;4.242;2022-10-18T07:43:41;102828.69;;;11.39;92.01
36692;BME280;22678;52.052;4.242;2022-10-18T07:46:07;102846.97;;;11.78;91.74
36692;BME280;22678;52.052;4.242;2022-10-18T07:48:33;102850.72;;;11.89;91.36
36692;BME280;22678;52.052;4.242;2022-10-18T07:50:59;102860.56;;;11.98;91.38
36692;BME280;22678;52.052;4.242;2022-10-18T07:53:25;102851.03;;;12.04;91.59
36692;BME280;22678;52.052;4.242;2022-10-18T07:55:50;102827.72;;;12.31;91.12
36692;BME280;22678;52.052;4.242;2022-10-18T07:58:16;102815.09;;;12.66;89.84
36692;BME280;22678;52.052;4.242;2022-10-18T08:00:41;102850.00;;;13.08;88.79
36692;BME280;22678;52.052;4.242;2022-10-18T08:03:06;102857.94;;;13.09;88.61
36692;BME280;22678;52.052;4.242;2022-10-18T08:05:32;102869.38;;;13.08;88.87
36692;BME280;22678;52.052;4.242;2022-10-18T08:07:57;102865.78;;;13.03;89.75
36692;BME280;22678;52.052;4.242;2022-10-18T08:10:22;102859.56;;;13.01;90.40
36692;BME280;22678;52.052;4.242;2022-10-18T08:12:49;102841.94;;;12.97;90.86
36692;BME280;22678;52.052;4.242;2022-10-18T08:15:14;102865.94;;;13.14;91.55
36692;BME280;22678;52.052;4.242;2022-10-18T08:17:40;102857.09;;;13.10;91.52
36692;BME280;22678;52.052;4.242;2022-10-18T08:20:08;102859.94;;;13.29;91.99
36692;BME280;22678;52.052;4.242;2022-10-18T08:22:33;102832.59;;;13.24;91.86
36692;BME280;22678;52.052;4.242;2022-10-18T08:24:58;102856.69;;;13.48;92.34
36692;BME280;22678;52.052;4.242;2022-10-18T08:27:24;102865.69;;;13.64;92.25
36692;BME280;22678;52.052;4.242;2022-10-18T08:29:50;102879.09;;;13.80;92.54
36692;BME280;22678;52.052;4.242;2022-10-18T08:32:16;102839.41;;;13.75;92.51
36692;BME280;22678;52.052;4.242;2022-10-18T08:34:41;102845.75;;;13.93;92.50
36692;BME280;22678;52.052;4.242;2022-10-18T08:37:06;102853.00;;;14.17;92.34
36692;BME280;22678;52.052;4.242;2022-10-18T08:39:31;102862.84;;;14.32;92.22
36692;BME280;22678;52.052;4.242;2022-10-18T08:42:18;102870.06;;;14.54;91.82
36692;BME280;22678;52.052;4.242;2022-10-18T08:44:49;102869.28;;;14.65;91.54
36692;BME280;22678;52.052;4.242;2022-10-18T08:47:41;102861.50;;;14.83;91.07
36692;BME280;22678;52.052;4.242;2022-10-18T08:50:15;102861.59;;;14.99;90.87
36692;BME280;22678;52.052;4.242;2022-10-18T08:52:47;102875.78;;;15.16;90.24
36692;BME280;22678;52.052;4.242;2022-10-18T08:55:25;102874.97;;;15.28;89.83
36692;BME280;22678;52.052;4.242;2022-10-18T08:57:53;102875.91;;;15.41;89.34
36692;BME280;22678;52.052;4.242;2022-10-18T09:00:20;102864.44;;;15.48;88.87
36692;BME280;22678;52.052;4.242;2022-10-18T09:02:55;102874.22;;;15.68;88.35
36692;BME280;22678;52.052;4.242;2022-10-18T09:16:14;102867.28;;;16.21;84.94
36692;BME280;22678;52.052;4.242;2022-10-18T09:19:06;102872.63;;;16.28;84.28
36692;BME280;22678;52.052;4.242;2022-10-18T09:21:50;102890.31;;;16.51;83.57
36692;BME280;22678;52.052;4.242;2022-10-18T09:24:31;102873.50;;;16.51;82.91
36692;BME280;22678;52.052;4.242;2022-10-18T09:27:07;102877.00;;;16.59;82.24
36692;BME280;22678;52.052;4.242;2022-10-18T09:29:42;102899.16;;;16.75;81.31
36692;BME280;22678;52.052;4.242;2022-10-18T09:34:55;102907.13;;;16.93;79.92
36692;BME280;22678;52.052;4.242;2022-10-18T09:37:23;102885.91;;;16.87;79.15
36692;BME280;22678;52.052;4.242;2022-10-18T09:40:11;102903.56;;;17.02;78.35
36692;BME280;22678;52.052;4.242;2022-10-18T09:42:41;102905.31;;;17.14;77.54
36692;BME280;22678;52.052;4.242;2022-10-18T09:45:25;102901.75;;;17.15;76.91
36692;BME280;22678;52.052;4.242;2022-10-18T09:50:28;102909.69;;;17.33;74.86
36692;BME280;22678;52.052;4.242;2022-10-18T09:55:32;102925.56;;;17.49;73.24
36692;BME280;22678;52.052;4.242;2022-10-18T09:58:01;102928.22;;;17.55;72.79
36692;BME280;22678;52.052;4.242;2022-10-18T10:00:36;102920.25;;;17.55;72.19
36692;BME280;22678;52.052;4.242;2022-10-18T10:03:10;102925.53;;;17.61;71.41
36692;BME280;22678;52.052;4.242;2022-10-18T10:05:45;102911.34;;;17.62;71.12
36692;BME280;22678;52.052;4.242;2022-10-18T10:08:10;102909.53;;;17.64;71.16
36692;BME280;22678;52.052;4.242;2022-10-18T10:10:41;102939.59;;;17.93;70.82
36692;BME280;22678;52.052;4.242;2022-10-18T10:13:17;102931.56;;;18.03;70.87
36692;BME280;22678;52.052;4.242;2022-10-18T10:15:55;102939.47;;;18.13;70.64
36692;BME280;22678;52.052;4.242;2022-10-18T10:18:22;102934.97;;;18.21;70.12
36692;BME280;22678;52.052;4.242;2022-10-18T10:20:56;102920.78;;;18.20;69.58
36692;BME280;22678;52.052;4.242;2022-10-18T10:24:13;102944.66;;;18.34;68.68
36692;BME280;22678;52.052;4.242;2022-10-18T10:26:29;102950.81;;;18.41;68.50
36692;BME280;22678;52.052;4.242;2022-10-18T10:28:56;102950.75;;;18.47;67.88
36692;BME280;22678;52.052;4.242;2022-10-18T10:31:31;102958.69;;;18.53;67.82
36692;BME280;22678;52.052;4.242;2022-10-18T10:34:08;102930.34;;;18.48;67.24
36692;BME280;22678;52.052;4.242;2022-10-18T10:36:53;102928.47;;;18.59;66.46
36692;BME280;22678;52.052;4.242;2022-10-18T10:39:20;102954.09;;;18.77;66.53
36692;BME280;22678;52.052;4.242;2022-10-18T10:41:57;102962.00;;;18.85;66.17
36692;BME280;22678;52.052;4.242;2022-10-18T10:44:27;102941.66;;;18.74;65.56
36692;BME280;22678;52.052;4.242;2022-10-18T10:46:54;102950.47;;;18.87;65.51
36692;BME280;22678;52.052;4.242;2022-10-18T10:49:21;102957.47;;;19.01;65.02
36692;BME280;22678;52.052;4.242;2022-10-18T10:51:59;102925.59;;;18.87;64.11
36692;BME280;22678;52.052;4.242;2022-10-18T10:54:27;102965.31;;;19.15;64.16
36692;BME280;22678;52.052;4.242;2022-10-18T10:57:24;102968.78;;;19.23;63.74
36692;BME280;22678;52.052;4.242;2022-10-18T10:59:54;102956.34;;;19.22;63.80
36692;BME280;22678;52.052;4.242;2022-10-18T11:02:25;102954.53;;;19.24;63.43
36692;BME280;22678;52.052;4.242;2022-10-18T11:04:54;102950.06;;;19.28;63.18
36692;BME280;22678;52.052;4.242;2022-10-18T11:07:35;102969.38;;;19.48;63.11
36692;BME280;22678;52.052;4.242;2022-10-18T11:12:46;102966.53;;;19.62;62.93
36692;BME280;22678;52.052;4.242;2022-10-18T11:15:19;102954.13;;;19.61;61.81
36692;BME280;22678;52.052;4.242;2022-10-18T11:18:06;102973.47;;;19.75;60.78
36692;BME280;22678;52.052;4.242;2022-10-18T11:20:41;102975.28;;;19.78;60.54
36692;BME280;22678;52.052;4.242;2022-10-18T11:23:13;102968.13;;;19.78;61.08
36692;BME280;22678;52.052;4.242;2022-10-18T11:28:33;102977.72;;;19.97;60.42
36692;BME280;22678;52.052;4.242;2022-10-18T11:31:09;102975.00;;;20.00;60.24
36692;BME280;22678;52.052;4.242;2022-10-18T11:34:50;102954.66;;;19.91;60.07
36692;BME280;22678;52.052;4.242;2022-10-18T11:42:04;102953.50;;;20.09;60.73
36692;BME280;22678;52.052;4.242;2022-10-18T11:47:16;102958.56;;;20.27;60.47
36692;BME280;22678;52.052;4.242;2022-10-18T12:04:12;102954.69;;;20.47;60.91
36692;BME280;22678;52.052;4.242;2022-10-18T12:06:40;102963.53;;;20.51;60.71
36692;BME280;22678;52.052;4.242;2022-10-18T12:12:07;102962.41;;;20.64;60.72
36692;BME280;22678;52.052;4.242;2022-10-18T12:14:45;102935.84;;;20.55;60.29
36692;BME280;22678;52.052;4.242;2022-10-18T12:17:26;102956.22;;;20.62;60.17
36692;BME280;22678;52.052;4.242;2022-10-18T12:20:03;102960.69;;;20.61;59.45
36692;BME280;22678;52.052;4.242;2022-10-18T12:22:34;102959.75;;;20.64;59.20
36692;BME280;22678;52.052;4.242;2022-10-18T12:25:00;102939.41;;;20.57;58.93
36692;BME280;22678;52.052;4.242;2022-10-18T12:27:35;102962.34;;;20.72;58.59
36692;BME280;22678;52.052;4.242;2022-10-18T12:30:16;102937.50;;;20.62;58.77
36692;BME280;22678;52.052;4.242;2022-10-18T12:32:46;102956.78;;;20.82;58.47
36692;BME280;22678;52.052;4.242;2022-10-18T12:35:15;102950.50;;;20.87;58.00
36692;BME280;22678;52.052;4.242;2022-10-18T12:37:47;102958.44;;;20.91;58.24
36692;BME280;22678;52.052;4.242;2022-10-18T12:42:46;102923.81;;;20.83;58.16
36692;BME280;22678;52.052;4.242;2022-10-18T12:47:37;102951.00;;;21.07;57.70
36692;BME280;22678;52.052;4.242;2022-10-18T12:50:06;102957.25;;;21.06;57.36
36692;BME280;22678;52.052;4.242;2022-10-18T12:53:00;102944.91;;;20.99;56.51
36692;BME280;22678;52.052;4.242;2022-10-18T12:55:30;102946.69;;;21.00;56.76
36692;BME280;22678;52.052;4.242;2022-10-18T13:16:29;102935.78;;;21.09;56.10
36692;BME280;22678;52.052;4.242;2022-10-18T13:21:39;102917.00;;;21.12;55.25
36692;BME280;22678;52.052;4.242;2022-10-18T13:29:46;102922.41;;;21.09;55.55
36692;BME280;22678;52.052;4.242;2022-10-18T13:38:40;102916.16;;;21.10;55.42
36692;BME280;22678;52.052;4.242;2022-10-18T13:41:15;102907.47;;;20.99;55.45
36692;BME280;22678;52.052;4.242;2022-10-18T13:57:32;102918.94;;;21.06;53.19
36692;BME280;22678;52.052;4.242;2022-10-18T14:00:11;102929.75;;;20.99;53.13
36692;BME280;22678;52.052;4.242;2022-10-18T14:05:50;102929.78;;;20.96;54.31
36692;BME280;22678;52.052;4.242;2022-10-18T14:08:21;102915.66;;;20.90;54.34
36692;BME280;22678;52.052;4.242;2022-10-18T14:10:59;102925.34;;;20.97;54.54
36692;BME280;22678;52.052;4.242;2022-10-18T14:18:59;102921.84;;;20.92;54.47
36692;BME280;22678;52.052;4.242;2022-10-18T14:21:33;102929.81;;;20.95;54.62
36692;BME280;22678;52.052;4.242;2022-10-18T14:24:00;102938.09;;;20.82;54.15
36692;BME280;22678;52.052;4.242;2022-10-18T14:26:26;102914.94;;;20.80;54.19
36692;BME280;22678;52.052;4.242;2022-10-18T14:29:04;102910.53;;;20.79;54.04
36692;BME280;22678;52.052;4.242;2022-10-18T14:31:30;102941.50;;;20.91;53.95
36692;BME280;22678;52.052;4.242;2022-10-18T14:33:57;102912.34;;;20.75;53.97
36692;BME280;22678;52.052;4.242;2022-10-18T14:36:25;102921.91;;;20.89;54.09
36692;BME280;22678;52.052;4.242;2022-10-18T14:38:59;102938.78;;;20.94;53.89
36692;BME280;22678;52.052;4.242;2022-10-18T14:41:36;102938.72;;;20.97;53.60
36692;BME280;22678;52.052;4.242;2022-10-18T14:47:18;102937.75;;;21.01;53.45
36692;BME280;22678;52.052;4.242;2022-10-18T14:49:45;102927.19;;;20.92;52.81
36692;BME280;22678;52.052;4.242;2022-10-18T14:52:25;102921.91;;;20.89;52.63
36692;BME280;22678;52.052;4.242;2022-10-18T14:54:54;102907.09;;;20.71;52.63
36692;BME280;22678;52.052;4.242;2022-10-18T14:57:27;102931.84;;;20.82;52.77
36692;BME280;22678;52.052;4.242;2022-10-18T14:59:57;102940.69;;;20.86;52.81
36692;BME280;22678;52.052;4.242;2022-10-18T15:02:25;102941.63;;;20.83;52.71
36692;BME280;22678;52.052;4.242;2022-10-18T15:05:04;102939.00;;;20.80;52.94
36692;BME280;22678;52.052;4.242;2022-10-18T15:07:30;102919.66;;;20.62;52.82
36692;BME280;22678;52.052;4.242;2022-10-18T15:09:57;102943.63;;;20.72;52.50
36692;BME280;22678;52.052;4.242;2022-10-18T15:12:23;102907.41;;;20.51;53.08